sensor_id;sensor_type;location;lat;lon;timestamp;P1;durP1;ratioP1;P2;durP2;ratioP2
33094;SDS011;19459;53.044;8.910;2023-04-09T00:01:22;100.38;;;47.03;;
33094;SDS011;19459;53.044;8.910;2023-04-09T00:03:48;96.07;;;46.10;;
33094;SDS011;19459;53.044;8.910;2023-04-09T00:06:14;96.22;;;46.67;;
33094;SDS011;19459;53.044;8.910;2023-04-09T00:08:40;92.90;;;44.22;;
33094;SDS011;19459;53.044;8.910;2023-04-09T00:11:06;95.68;;;44.35;;
33094;SDS011;19459;53.044;8.910;2023-04-09T00:13:31;92.80;;;46.08;;
33094;SDS011;19459;53.044;8.910;2023-04-09T00:15:57;84.03;;;41.33;;
33094;SDS011;19459;53.044;8.910;2023-04-09T00:18:23;90.32;;;46.33;;
33094;SDS011;19459;53.044;8.910;2023-04-09T00:20:49;94.75;;;47.17;;
33094;SDS011;19459;53.044;8.910;2023-04-09T00:23:15;101.13;;;47.45;;
33094;SDS011;19459;53.044;8.910;2023-04-09T00:25:41;95.78;;;47.28;;
33094;SDS011;19459;53.044;8.910;2023-04-09T00:28:06;91.25;;;45.70;;
33094;SDS011;19459;53.044;8.910;2023-04-09T00:30:32;100.28;;;46.80;;
33094;SDS011;19459;53.044;8.910;2023-04-09T00:32:58;92.50;;;45.28;;
33094;SDS011;19459;53.044;8.910;2023-04-09T00:35:24;89.93;;;45.80;;
33094;SDS011;19459;53.044;8.910;2023-04-09T00:37:50;95.70;;;45.47;;
33094;SDS011;19459;53.044;8.910;2023-04-09T00:40:15;92.20;;;45.50;;
33094;SDS011;19459;53.044;8.910;2023-04-09T00:42:41;95.35;;;45.03;;
33094;SDS011;19459;53.044;8.910;2023-04-09T00:45:07;98.75;;;47.58;;
33094;SDS011;19459;53.044;8.910;2023-04-09T00:47:34;99.82;;;47.95;;
33094;SDS011;19459;53.044;8.910;2023-04-09T00:50:00;96.07;;;45.72;;
33094;SDS011;19459;53.044;8.910;2023-04-09T00:52:27;95.85;;;47.28;;
33094;SDS011;19459;53.044;8.910;2023-04-09T00:54:57;95.70;;;46.03;;
33094;SDS011;19459;53.044;8.910;2023-04-09T00:57:25;90.10;;;45.28;;
33094;SDS011;19459;53.044;8.910;2023-04-09T00:59:52;98.45;;;45.88;;
33094;SDS011;19459;53.044;8.910;2023-04-09T01:02:18;96.97;;;43.40;;
33094;SDS011;19459;53.044;8.910;2023-04-09T01:04:44;97.18;;;45.67;;
33094;SDS011;19459;53.044;8.910;2023-04-09T01:07:12;88.15;;;42.22;;
33094;SDS011;19459;53.044;8.910;2023-04-09T01:10:14;86.28;;;43.55;;
33094;SDS011;19459;53.044;8.910;2023-04-09T01:15:38;89.97;;;44.35;;
33094;SDS011;19459;53.044;8.910;2023-04-09T01:18:29;94.35;;;44.33;;
33094;SDS011;19459;53.044;8.910;2023-04-09T01:21:05;89.72;;;43.28;;
33094;SDS011;19459;53.044;8.910;2023-04-09T01:27:00;88.65;;;44.25;;
33094;SDS011;19459;53.044;8.910;2023-04-09T01:29:29;89.47;;;42.55;;
33094;SDS011;19459;53.044;8.910;2023-04-09T01:31:58;84.85;;;41.72;;
33094;SDS011;19459;53.044;8.910;2023-04-09T01:34:26;84.82;;;42.13;;
33094;SDS011;19459;53.044;8.910;2023-04-09T01:36:55;98.15;;;45.38;;
33094;SDS011;19459;53.044;8.910;2023-04-09T01:39:24;89.10;;;44.47;;
33094;SDS011;19459;53.044;8.910;2023-04-09T01:41:51;92.05;;;42.88;;
33094;SDS011;19459;53.044;8.910;2023-04-09T01:44:18;90.88;;;43.38;;
33094;SDS011;19459;53.044;8.910;2023-04-09T01:46:48;91.40;;;42.45;;
33094;SDS011;19459;53.044;8.910;2023-04-09T01:49:16;89.55;;;43.30;;
33094;SDS011;19459;53.044;8.910;2023-04-09T01:51:42;93.05;;;42.38;;
33094;SDS011;19459;53.044;8.910;2023-04-09T01:54:08;97.75;;;44.20;;
33094;SDS011;19459;53.044;8.910;2023-04-09T01:56:44;82.57;;;41.17;;
33094;SDS011;19459;53.044;8.910;2023-04-09T01:59:12;92.50;;;43.55;;
33094;SDS011;19459;53.044;8.910;2023-04-09T02:01:45;85.35;;;39.65;;
33094;SDS011;19459;53.044;8.910;2023-04-09T02:04:23;78.65;;;39.20;;
33094;SDS011;19459;53.044;8.910;2023-04-09T02:06:58;87.40;;;42.17;;
33094;SDS011;19459;53.044;8.910;2023-04-09T02:09:31;86.75;;;40.58;;
33094;SDS011;19459;53.044;8.910;2023-04-09T02:12:02;79.25;;;40.10;;
33094;SDS011;19459;53.044;8.910;2023-04-09T02:14:31;72.72;;;37.67;;
33094;SDS011;19459;53.044;8.910;2023-04-09T02:16:59;76.03;;;37.33;;
33094;SDS011;19459;53.044;8.910;2023-04-09T02:19:36;86.00;;;38.42;;
33094;SDS011;19459;53.044;8.910;2023-04-09T02:22:07;71.28;;;36.38;;
33094;SDS011;19459;53.044;8.910;2023-04-09T02:24:33;76.72;;;37.17;;
33094;SDS011;19459;53.044;8.910;2023-04-09T02:27:00;77.78;;;37.67;;
33094;SDS011;19459;53.044;8.910;2023-04-09T02:29:26;74.05;;;35.47;;
33094;SDS011;19459;53.044;8.910;2023-04-09T02:31:53;81.60;;;39.78;;
33094;SDS011;19459;53.044;8.910;2023-04-09T02:34:19;82.03;;;39.28;;
33094;SDS011;19459;53.044;8.910;2023-04-09T02:36:45;80.05;;;38.45;;
33094;SDS011;19459;53.044;8.910;2023-04-09T02:39:10;80.60;;;38.08;;
33094;SDS011;19459;53.044;8.910;2023-04-09T02:41:36;80.22;;;37.30;;
33094;SDS011;19459;53.044;8.910;2023-04-09T02:44:02;86.93;;;41.05;;
33094;SDS011;19459;53.044;8.910;2023-04-09T02:46:28;89.22;;;40.35;;
33094;SDS011;19459;53.044;8.910;2023-04-09T02:48:54;89.20;;;41.15;;
33094;SDS011;19459;53.044;8.910;2023-04-09T02:51:20;88.40;;;38.88;;
33094;SDS011;19459;53.044;8.910;2023-04-09T02:53:45;79.50;;;40.85;;
33094;SDS011;19459;53.044;8.910;2023-04-09T02:56:11;82.25;;;35.47;;
33094;SDS011;19459;53.044;8.910;2023-04-09T02:58:37;64.13;;;33.25;;
33094;SDS011;19459;53.044;8.910;2023-04-09T03:01:03;65.60;;;31.95;;
33094;SDS011;19459;53.044;8.910;2023-04-09T03:03:29;61.85;;;30.95;;
33094;SDS011;19459;53.044;8.910;2023-04-09T03:05:55;56.28;;;28.88;;
33094;SDS011;19459;53.044;8.910;2023-04-09T03:08:21;55.85;;;29.80;;
33094;SDS011;19459;53.044;8.910;2023-04-09T03:10:47;53.97;;;28.23;;
33094;SDS011;19459;53.044;8.910;2023-04-09T03:13:13;54.80;;;29.17;;
33094;SDS011;19459;53.044;8.910;2023-04-09T03:15:39;49.17;;;27.27;;
33094;SDS011;19459;53.044;8.910;2023-04-09T03:18:05;55.60;;;29.63;;
33094;SDS011;19459;53.044;8.910;2023-04-09T03:20:31;58.63;;;30.15;;
33094;SDS011;19459;53.044;8.910;2023-04-09T03:22:57;57.42;;;28.60;;
33094;SDS011;19459;53.044;8.910;2023-04-09T03:25:22;55.92;;;29.15;;
33094;SDS011;19459;53.044;8.910;2023-04-09T03:27:48;61.65;;;29.40;;
33094;SDS011;19459;53.044;8.910;2023-04-09T03:30:14;58.40;;;31.55;;
33094;SDS011;19459;53.044;8.910;2023-04-09T03:32:40;59.17;;;31.58;;
33094;SDS011;19459;53.044;8.910;2023-04-09T03:35:06;63.50;;;31.38;;
33094;SDS011;19459;53.044;8.910;2023-04-09T03:37:32;66.03;;;31.38;;
33094;SDS011;19459;53.044;8.910;2023-04-09T03:39:58;57.63;;;31.50;;
33094;SDS011;19459;53.044;8.910;2023-04-09T03:42:24;53.65;;;29.70;;
33094;SDS011;19459;53.044;8.910;2023-04-09T03:44:52;62.67;;;28.67;;
33094;SDS011;19459;53.044;8.910;2023-04-09T03:47:18;54.92;;;27.20;;
33094;SDS011;19459;53.044;8.910;2023-04-09T03:49:44;60.28;;;30.73;;
33094;SDS011;19459;53.044;8.910;2023-04-09T03:52:10;60.25;;;29.15;;
33094;SDS011;19459;53.044;8.910;2023-04-09T03:54:36;58.95;;;30.17;;
33094;SDS011;19459;53.044;8.910;2023-04-09T03:57:02;55.17;;;30.23;;
33094;SDS011;19459;53.044;8.910;2023-04-09T03:59:28;63.40;;;30.85;;
33094;SDS011;19459;53.044;8.910;2023-04-09T04:01:54;67.80;;;30.77;;
33094;SDS011;19459;53.044;8.910;2023-04-09T04:04:20;59.55;;;29.48;;
33094;SDS011;19459;53.044;8.910;2023-04-09T04:06:45;62.28;;;31.33;;
33094;SDS011;19459;53.044;8.910;2023-04-09T04:09:11;60.70;;;31.00;;
33094;SDS011;19459;53.044;8.910;2023-04-09T04:11:37;60.25;;;29.92;;
33094;SDS011;19459;53.044;8.910;2023-04-09T04:14:03;65.40;;;31.38;;
33094;SDS011;19459;53.044;8.910;2023-04-09T04:16:29;63.28;;;31.20;;
33094;SDS011;19459;53.044;8.910;2023-04-09T04:18:55;63.47;;;32.60;;
33094;SDS011;19459;53.044;8.910;2023-04-09T04:21:20;70.10;;;33.92;;
33094;SDS011;19459;53.044;8.910;2023-04-09T04:23:46;73.13;;;34.53;;
33094;SDS011;19459;53.044;8.910;2023-04-09T04:26:12;86.68;;;36.15;;
33094;SDS011;19459;53.044;8.910;2023-04-09T04:28:38;80.38;;;38.28;;
33094;SDS011;19459;53.044;8.910;2023-04-09T04:31:11;82.38;;;35.65;;
33094;SDS011;19459;53.044;8.910;2023-04-09T04:33:37;65.20;;;30.08;;
33094;SDS011;19459;53.044;8.910;2023-04-09T04:36:06;61.85;;;30.98;;
33094;SDS011;19459;53.044;8.910;2023-04-09T04:38:34;55.08;;;28.45;;
33094;SDS011;19459;53.044;8.910;2023-04-09T04:41:01;56.75;;;28.70;;
33094;SDS011;19459;53.044;8.910;2023-04-09T04:43:27;49.90;;;25.80;;
33094;SDS011;19459;53.044;8.910;2023-04-09T04:45:53;56.78;;;26.08;;
33094;SDS011;19459;53.044;8.910;2023-04-09T04:48:19;51.22;;;27.00;;
33094;SDS011;19459;53.044;8.910;2023-04-09T04:50:46;52.83;;;26.92;;
33094;SDS011;19459;53.044;8.910;2023-04-09T04:53:19;47.08;;;24.75;;
33094;SDS011;19459;53.044;8.910;2023-04-09T04:55:45;51.20;;;26.17;;
33094;SDS011;19459;53.044;8.910;2023-04-09T04:58:11;52.63;;;26.52;;
33094;SDS011;19459;53.044;8.910;2023-04-09T05:00:37;48.67;;;26.25;;
33094;SDS011;19459;53.044;8.910;2023-04-09T05:03:03;58.47;;;26.15;;
33094;SDS011;19459;53.044;8.910;2023-04-09T05:05:28;50.83;;;26.50;;
33094;SDS011;19459;53.044;8.910;2023-04-09T05:07:54;52.55;;;27.10;;
33094;SDS011;19459;53.044;8.910;2023-04-09T05:10:20;48.78;;;25.52;;
33094;SDS011;19459;53.044;8.910;2023-04-09T05:12:46;51.22;;;26.17;;
33094;SDS011;19459;53.044;8.910;2023-04-09T05:15:11;57.85;;;28.50;;
33094;SDS011;19459;53.044;8.910;2023-04-09T05:17:38;54.17;;;27.80;;
33094;SDS011;19459;53.044;8.910;2023-04-09T05:20:07;53.80;;;28.17;;
33094;SDS011;19459;53.044;8.910;2023-04-09T05:22:33;53.03;;;26.95;;
33094;SDS011;19459;53.044;8.910;2023-04-09T05:25:00;59.75;;;28.65;;
33094;SDS011;19459;53.044;8.910;2023-04-09T05:27:26;59.95;;;28.25;;
33094;SDS011;19459;53.044;8.910;2023-04-09T05:29:53;53.50;;;26.98;;
33094;SDS011;19459;53.044;8.910;2023-04-09T05:32:19;52.72;;;26.95;;
33094;SDS011;19459;53.044;8.910;2023-04-09T05:34:45;56.60;;;29.38;;
33094;SDS011;19459;53.044;8.910;2023-04-09T05:37:11;61.88;;;31.45;;
33094;SDS011;19459;53.044;8.910;2023-04-09T05:39:37;65.97;;;31.30;;
33094;SDS011;19459;53.044;8.910;2023-04-09T05:42:03;58.47;;;31.20;;
33094;SDS011;19459;53.044;8.910;2023-04-09T05:44:29;70.35;;;32.30;;
33094;SDS011;19459;53.044;8.910;2023-04-09T05:46:55;68.78;;;32.75;;
33094;SDS011;19459;53.044;8.910;2023-04-09T05:49:21;76.22;;;32.58;;
33094;SDS011;19459;53.044;8.910;2023-04-09T05:51:48;86.38;;;36.80;;
33094;SDS011;19459;53.044;8.910;2023-04-09T05:54:14;77.95;;;35.25;;
33094;SDS011;19459;53.044;8.910;2023-04-09T05:56:41;76.75;;;36.58;;
33094;SDS011;19459;53.044;8.910;2023-04-09T05:59:07;77.70;;;35.35;;
33094;SDS011;19459;53.044;8.910;2023-04-09T06:01:33;77.70;;;36.72;;
33094;SDS011;19459;53.044;8.910;2023-04-09T06:03:59;81.50;;;37.70;;
33094;SDS011;19459;53.044;8.910;2023-04-09T06:06:25;77.72;;;34.22;;
33094;SDS011;19459;53.044;8.910;2023-04-09T06:08:51;67.90;;;35.00;;
33094;SDS011;19459;53.044;8.910;2023-04-09T06:11:17;61.67;;;31.55;;
33094;SDS011;19459;53.044;8.910;2023-04-09T06:13:42;59.03;;;31.25;;
33094;SDS011;19459;53.044;8.910;2023-04-09T06:16:08;65.82;;;31.08;;
33094;SDS011;19459;53.044;8.910;2023-04-09T06:18:35;61.58;;;29.52;;
33094;SDS011;19459;53.044;8.910;2023-04-09T06:21:05;55.38;;;29.63;;
33094;SDS011;19459;53.044;8.910;2023-04-09T06:23:33;53.78;;;29.63;;
33094;SDS011;19459;53.044;8.910;2023-04-09T06:26:01;56.78;;;28.85;;
33094;SDS011;19459;53.044;8.910;2023-04-09T06:28:27;55.72;;;30.05;;
33094;SDS011;19459;53.044;8.910;2023-04-09T06:30:53;58.03;;;29.08;;
33094;SDS011;19459;53.044;8.910;2023-04-09T06:33:19;53.17;;;27.85;;
33094;SDS011;19459;53.044;8.910;2023-04-09T06:35:46;53.72;;;28.17;;
33094;SDS011;19459;53.044;8.910;2023-04-09T06:38:13;48.55;;;25.65;;
33094;SDS011;19459;53.044;8.910;2023-04-09T06:40:39;60.03;;;30.70;;
33094;SDS011;19459;53.044;8.910;2023-04-09T06:43:06;53.80;;;27.17;;
33094;SDS011;19459;53.044;8.910;2023-04-09T06:45:32;50.90;;;27.58;;
33094;SDS011;19459;53.044;8.910;2023-04-09T06:47:58;51.83;;;26.88;;
33094;SDS011;19459;53.044;8.910;2023-04-09T06:50:24;49.28;;;25.85;;
33094;SDS011;19459;53.044;8.910;2023-04-09T06:52:51;47.63;;;28.23;;
33094;SDS011;19459;53.044;8.910;2023-04-09T06:55:18;56.42;;;28.05;;
33094;SDS011;19459;53.044;8.910;2023-04-09T06:57:44;51.03;;;26.90;;
33094;SDS011;19459;53.044;8.910;2023-04-09T07:00:10;49.88;;;24.85;;
33094;SDS011;19459;53.044;8.910;2023-04-09T07:02:36;50.47;;;27.52;;
33094;SDS011;19459;53.044;8.910;2023-04-09T07:05:02;48.35;;;27.25;;
33094;SDS011;19459;53.044;8.910;2023-04-09T07:07:28;50.88;;;26.67;;
33094;SDS011;19459;53.044;8.910;2023-04-09T07:09:54;47.28;;;25.77;;
33094;SDS011;19459;53.044;8.910;2023-04-09T07:14:56;49.05;;;27.20;;
33094;SDS011;19459;53.044;8.910;2023-04-09T07:17:23;43.88;;;24.90;;
33094;SDS011;19459;53.044;8.910;2023-04-09T07:19:49;47.83;;;26.13;;
33094;SDS011;19459;53.044;8.910;2023-04-09T07:22:19;45.22;;;26.13;;
33094;SDS011;19459;53.044;8.910;2023-04-09T07:24:48;43.53;;;23.60;;
33094;SDS011;19459;53.044;8.910;2023-04-09T07:27:27;41.15;;;22.52;;
33094;SDS011;19459;53.044;8.910;2023-04-09T07:29:56;38.17;;;22.27;;
33094;SDS011;19459;53.044;8.910;2023-04-09T07:32:23;38.00;;;21.42;;
33094;SDS011;19459;53.044;8.910;2023-04-09T07:34:51;38.70;;;21.08;;
33094;SDS011;19459;53.044;8.910;2023-04-09T07:37:17;34.17;;;18.95;;
33094;SDS011;19459;53.044;8.910;2023-04-09T07:39:46;35.38;;;20.20;;
33094;SDS011;19459;53.044;8.910;2023-04-09T07:42:12;33.83;;;19.35;;
33094;SDS011;19459;53.044;8.910;2023-04-09T07:44:38;31.90;;;19.02;;
33094;SDS011;19459;53.044;8.910;2023-04-09T07:47:05;34.05;;;19.50;;
33094;SDS011;19459;53.044;8.910;2023-04-09T07:49:32;33.15;;;19.83;;
33094;SDS011;19459;53.044;8.910;2023-04-09T07:52:00;36.35;;;20.67;;
33094;SDS011;19459;53.044;8.910;2023-04-09T07:54:26;33.85;;;19.77;;
33094;SDS011;19459;53.044;8.910;2023-04-09T07:56:52;31.23;;;19.13;;
33094;SDS011;19459;53.044;8.910;2023-04-09T07:59:18;33.38;;;20.30;;
33094;SDS011;19459;53.044;8.910;2023-04-09T08:01:44;34.80;;;20.25;;
33094;SDS011;19459;53.044;8.910;2023-04-09T08:04:10;33.88;;;20.48;;
33094;SDS011;19459;53.044;8.910;2023-04-09T08:06:37;35.75;;;20.98;;
33094;SDS011;19459;53.044;8.910;2023-04-09T08:09:03;35.92;;;21.98;;
33094;SDS011;19459;53.044;8.910;2023-04-09T08:11:28;31.30;;;19.75;;
33094;SDS011;19459;53.044;8.910;2023-04-09T08:13:54;32.65;;;18.80;;
33094;SDS011;19459;53.044;8.910;2023-04-09T08:16:21;34.42;;;19.75;;
33094;SDS011;19459;53.044;8.910;2023-04-09T08:18:51;36.00;;;20.27;;
33094;SDS011;19459;53.044;8.910;2023-04-09T08:21:18;36.50;;;21.75;;
33094;SDS011;19459;53.044;8.910;2023-04-09T08:23:44;32.85;;;18.95;;
33094;SDS011;19459;53.044;8.910;2023-04-09T08:26:10;36.60;;;22.42;;
33094;SDS011;19459;53.044;8.910;2023-04-09T08:28:35;32.97;;;20.17;;
33094;SDS011;19459;53.044;8.910;2023-04-09T08:31:01;32.63;;;20.98;;
33094;SDS011;19459;53.044;8.910;2023-04-09T08:33:27;34.53;;;18.95;;
33094;SDS011;19459;53.044;8.910;2023-04-09T08:35:53;33.13;;;19.88;;
33094;SDS011;19459;53.044;8.910;2023-04-09T08:38:19;39.72;;;21.73;;
33094;SDS011;19459;53.044;8.910;2023-04-09T08:40:45;33.22;;;19.50;;
33094;SDS011;19459;53.044;8.910;2023-04-09T08:43:12;37.00;;;20.10;;
33094;SDS011;19459;53.044;8.910;2023-04-09T08:45:42;36.03;;;20.70;;
33094;SDS011;19459;53.044;8.910;2023-04-09T08:48:08;38.55;;;20.35;;
33094;SDS011;19459;53.044;8.910;2023-04-09T08:50:37;32.63;;;20.00;;
33094;SDS011;19459;53.044;8.910;2023-04-09T08:53:07;34.38;;;20.60;;
33094;SDS011;19459;53.044;8.910;2023-04-09T08:55:34;32.20;;;19.40;;
33094;SDS011;19459;53.044;8.910;2023-04-09T08:58:04;31.52;;;19.40;;
33094;SDS011;19459;53.044;8.910;2023-04-09T09:00:31;33.42;;;20.33;;
33094;SDS011;19459;53.044;8.910;2023-04-09T09:03:07;32.97;;;20.45;;
33094;SDS011;19459;53.044;8.910;2023-04-09T09:08:07;31.60;;;19.80;;
33094;SDS011;19459;53.044;8.910;2023-04-09T09:10:39;35.33;;;20.70;;
33094;SDS011;19459;53.044;8.910;2023-04-09T09:13:23;32.80;;;21.50;;
33094;SDS011;19459;53.044;8.910;2023-04-09T09:15:54;32.20;;;20.25;;
33094;SDS011;19459;53.044;8.910;2023-04-09T09:18:38;34.97;;;21.20;;
33094;SDS011;19459;53.044;8.910;2023-04-09T09:21:13;32.10;;;20.40;;
33094;SDS011;19459;53.044;8.910;2023-04-09T09:23:43;32.25;;;18.92;;
33094;SDS011;19459;53.044;8.910;2023-04-09T09:26:16;31.75;;;19.13;;
33094;SDS011;19459;53.044;8.910;2023-04-09T09:28:46;32.25;;;20.13;;
33094;SDS011;19459;53.044;8.910;2023-04-09T09:31:14;30.40;;;19.30;;
33094;SDS011;19459;53.044;8.910;2023-04-09T09:33:42;31.80;;;19.63;;
33094;SDS011;19459;53.044;8.910;2023-04-09T09:36:08;32.58;;;19.88;;
33094;SDS011;19459;53.044;8.910;2023-04-09T09:38:50;33.15;;;20.13;;
33094;SDS011;19459;53.044;8.910;2023-04-09T09:41:19;33.05;;;20.48;;
33094;SDS011;19459;53.044;8.910;2023-04-09T09:43:45;32.55;;;20.02;;
33094;SDS011;19459;53.044;8.910;2023-04-09T09:46:11;35.40;;;20.70;;
33094;SDS011;19459;53.044;8.910;2023-04-09T09:48:37;36.80;;;20.88;;
33094;SDS011;19459;53.044;8.910;2023-04-09T09:51:07;37.15;;;21.80;;
33094;SDS011;19459;53.044;8.910;2023-04-09T09:53:35;34.85;;;21.23;;
33094;SDS011;19459;53.044;8.910;2023-04-09T09:56:05;32.53;;;20.42;;
33094;SDS011;19459;53.044;8.910;2023-04-09T09:58:48;36.70;;;21.30;;
33094;SDS011;19459;53.044;8.910;2023-04-09T10:01:31;36.05;;;21.75;;
33094;SDS011;19459;53.044;8.910;2023-04-09T10:03:59;31.20;;;20.25;;
33094;SDS011;19459;53.044;8.910;2023-04-09T10:06:26;33.80;;;21.33;;
33094;SDS011;19459;53.044;8.910;2023-04-09T10:08:57;29.35;;;19.98;;
33094;SDS011;19459;53.044;8.910;2023-04-09T10:11:29;29.90;;;19.45;;
33094;SDS011;19459;53.044;8.910;2023-04-09T10:13:57;30.95;;;20.08;;
33094;SDS011;19459;53.044;8.910;2023-04-09T10:16:24;33.05;;;19.83;;
33094;SDS011;19459;53.044;8.910;2023-04-09T10:18:57;36.78;;;20.25;;
33094;SDS011;19459;53.044;8.910;2023-04-09T10:21:27;32.65;;;19.35;;
33094;SDS011;19459;53.044;8.910;2023-04-09T10:24:04;32.90;;;18.98;;
33094;SDS011;19459;53.044;8.910;2023-04-09T10:26:32;31.17;;;19.88;;
33094;SDS011;19459;53.044;8.910;2023-04-09T10:29:06;27.67;;;18.00;;
33094;SDS011;19459;53.044;8.910;2023-04-09T10:34:39;26.00;;;17.60;;
33094;SDS011;19459;53.044;8.910;2023-04-09T10:37:14;31.80;;;19.63;;
33094;SDS011;19459;53.044;8.910;2023-04-09T10:39:51;32.63;;;19.70;;
33094;SDS011;19459;53.044;8.910;2023-04-09T10:42:18;28.25;;;18.73;;
33094;SDS011;19459;53.044;8.910;2023-04-09T10:45:10;24.63;;;17.85;;
33094;SDS011;19459;53.044;8.910;2023-04-09T10:50:17;28.65;;;19.13;;
33094;SDS011;19459;53.044;8.910;2023-04-09T10:52:51;37.60;;;21.60;;
33094;SDS011;19459;53.044;8.910;2023-04-09T10:58:20;29.33;;;17.23;;
33094;SDS011;19459;53.044;8.910;2023-04-09T11:00:46;30.73;;;19.27;;
33094;SDS011;19459;53.044;8.910;2023-04-09T11:03:21;31.45;;;20.10;;
33094;SDS011;19459;53.044;8.910;2023-04-09T11:08:18;28.35;;;18.42;;
33094;SDS011;19459;53.044;8.910;2023-04-09T11:10:46;29.38;;;19.50;;
33094;SDS011;19459;53.044;8.910;2023-04-09T11:13:16;26.45;;;18.13;;
33094;SDS011;19459;53.044;8.910;2023-04-09T11:15:44;27.58;;;17.98;;
33094;SDS011;19459;53.044;8.910;2023-04-09T11:18:13;27.42;;;18.00;;
33094;SDS011;19459;53.044;8.910;2023-04-09T11:21:01;29.00;;;19.52;;
33094;SDS011;19459;53.044;8.910;2023-04-09T11:23:34;23.73;;;17.23;;
33094;SDS011;19459;53.044;8.910;2023-04-09T11:26:00;46.30;;;28.25;;
33094;SDS011;19459;53.044;8.910;2023-04-09T11:28:26;33.67;;;21.58;;
33094;SDS011;19459;53.044;8.910;2023-04-09T11:30:52;30.83;;;19.15;;
33094;SDS011;19459;53.044;8.910;2023-04-09T11:33:18;29.70;;;18.98;;
33094;SDS011;19459;53.044;8.910;2023-04-09T11:35:44;28.50;;;18.85;;
33094;SDS011;19459;53.044;8.910;2023-04-09T11:38:10;23.65;;;16.55;;
33094;SDS011;19459;53.044;8.910;2023-04-09T11:40:37;60.55;;;42.47;;
33094;SDS011;19459;53.044;8.910;2023-04-09T11:43:12;29.52;;;19.60;;
33094;SDS011;19459;53.044;8.910;2023-04-09T11:45:40;29.63;;;19.25;;
33094;SDS011;19459;53.044;8.910;2023-04-09T11:48:06;79.32;;;40.28;;
33094;SDS011;19459;53.044;8.910;2023-04-09T11:50:32;47.75;;;29.38;;
33094;SDS011;19459;53.044;8.910;2023-04-09T11:52:58;171.70;;;104.22;;
33094;SDS011;19459;53.044;8.910;2023-04-09T11:55:25;83.47;;;50.35;;
33094;SDS011;19459;53.044;8.910;2023-04-09T11:57:55;93.45;;;58.10;;
33094;SDS011;19459;53.044;8.910;2023-04-09T12:00:24;35.55;;;24.17;;
33094;SDS011;19459;53.044;8.910;2023-04-09T12:03:01;25.15;;;17.13;;
33094;SDS011;19459;53.044;8.910;2023-04-09T12:05:29;24.48;;;16.75;;
33094;SDS011;19459;53.044;8.910;2023-04-09T12:08:00;22.25;;;16.25;;
33094;SDS011;19459;53.044;8.910;2023-04-09T12:10:30;212.32;;;117.32;;
33094;SDS011;19459;53.044;8.910;2023-04-09T12:13:16;319.52;;;174.52;;
33094;SDS011;19459;53.044;8.910;2023-04-09T12:15:41;68.40;;;40.22;;
33094;SDS011;19459;53.044;8.910;2023-04-09T12:18:11;241.90;;;140.50;;
33094;SDS011;19459;53.044;8.910;2023-04-09T12:20:39;222.27;;;116.90;;
33094;SDS011;19459;53.044;8.910;2023-04-09T12:23:08;29.65;;;19.02;;
33094;SDS011;19459;53.044;8.910;2023-04-09T12:25:36;67.03;;;38.63;;
33094;SDS011;19459;53.044;8.910;2023-04-09T12:28:07;185.82;;;101.55;;
33094;SDS011;19459;53.044;8.910;2023-04-09T12:30:36;43.00;;;32.20;;
33094;SDS011;19459;53.044;8.910;2023-04-09T12:33:02;79.40;;;43.60;;
33094;SDS011;19459;53.044;8.910;2023-04-09T12:35:28;58.38;;;35.67;;
33094;SDS011;19459;53.044;8.910;2023-04-09T12:37:54;51.75;;;32.58;;
33094;SDS011;19459;53.044;8.910;2023-04-09T12:40:20;34.85;;;23.92;;
33094;SDS011;19459;53.044;8.910;2023-04-09T12:42:47;24.05;;;17.73;;
33094;SDS011;19459;53.044;8.910;2023-04-09T12:45:14;34.67;;;22.83;;
33094;SDS011;19459;53.044;8.910;2023-04-09T12:47:42;20.35;;;14.73;;
33094;SDS011;19459;53.044;8.910;2023-04-09T12:50:09;42.50;;;27.42;;
33094;SDS011;19459;53.044;8.910;2023-04-09T12:52:36;19.42;;;14.43;;
33094;SDS011;19459;53.044;8.910;2023-04-09T12:55:02;20.33;;;13.15;;
33094;SDS011;19459;53.044;8.910;2023-04-09T12:57:29;20.65;;;13.60;;
33094;SDS011;19459;53.044;8.910;2023-04-09T12:59:55;21.40;;;14.68;;
33094;SDS011;19459;53.044;8.910;2023-04-09T13:02:22;19.45;;;13.82;;
33094;SDS011;19459;53.044;8.910;2023-04-09T13:04:48;18.98;;;13.57;;
33094;SDS011;19459;53.044;8.910;2023-04-09T13:07:15;26.00;;;16.85;;
33094;SDS011;19459;53.044;8.910;2023-04-09T13:09:44;24.50;;;16.58;;
33094;SDS011;19459;53.044;8.910;2023-04-09T13:12:10;92.20;;;49.83;;
33094;SDS011;19459;53.044;8.910;2023-04-09T13:14:39;37.17;;;23.92;;
33094;SDS011;19459;53.044;8.910;2023-04-09T13:17:07;57.22;;;32.22;;
33094;SDS011;19459;53.044;8.910;2023-04-09T13:19:32;106.28;;;65.80;;
33094;SDS011;19459;53.044;8.910;2023-04-09T13:21:58;47.63;;;31.23;;
33094;SDS011;19459;53.044;8.910;2023-04-09T13:24:24;30.33;;;20.80;;
33094;SDS011;19459;53.044;8.910;2023-04-09T13:26:50;21.15;;;15.90;;
33094;SDS011;19459;53.044;8.910;2023-04-09T13:29:17;18.10;;;13.18;;
33094;SDS011;19459;53.044;8.910;2023-04-09T13:31:43;23.23;;;16.13;;
33094;SDS011;19459;53.044;8.910;2023-04-09T13:34:09;17.67;;;14.13;;
33094;SDS011;19459;53.044;8.910;2023-04-09T13:36:34;19.58;;;14.50;;
33094;SDS011;19459;53.044;8.910;2023-04-09T13:39:00;23.50;;;16.55;;
33094;SDS011;19459;53.044;8.910;2023-04-09T13:41:31;53.15;;;33.88;;
33094;SDS011;19459;53.044;8.910;2023-04-09T13:43:58;37.25;;;23.60;;
33094;SDS011;19459;53.044;8.910;2023-04-09T13:46:24;21.63;;;14.85;;
33094;SDS011;19459;53.044;8.910;2023-04-09T13:48:51;47.80;;;28.92;;
33094;SDS011;19459;53.044;8.910;2023-04-09T13:51:16;25.25;;;17.42;;
33094;SDS011;19459;53.044;8.910;2023-04-09T13:53:42;245.75;;;124.10;;
33094;SDS011;19459;53.044;8.910;2023-04-09T13:56:09;144.95;;;71.72;;
33094;SDS011;19459;53.044;8.910;2023-04-09T13:58:35;79.45;;;42.08;;
33094;SDS011;19459;53.044;8.910;2023-04-09T14:01:01;50.55;;;31.55;;
33094;SDS011;19459;53.044;8.910;2023-04-09T14:03:27;29.75;;;20.40;;
33094;SDS011;19459;53.044;8.910;2023-04-09T14:05:52;34.13;;;22.42;;
33094;SDS011;19459;53.044;8.910;2023-04-09T14:08:18;29.80;;;19.10;;
33094;SDS011;19459;53.044;8.910;2023-04-09T14:10:44;42.72;;;28.83;;
33094;SDS011;19459;53.044;8.910;2023-04-09T14:13:10;34.45;;;24.20;;
33094;SDS011;19459;53.044;8.910;2023-04-09T14:15:36;32.67;;;22.63;;
33094;SDS011;19459;53.044;8.910;2023-04-09T14:18:02;21.52;;;14.02;;
33094;SDS011;19459;53.044;8.910;2023-04-09T14:20:28;20.00;;;14.85;;
33094;SDS011;19459;53.044;8.910;2023-04-09T14:22:54;21.38;;;14.27;;
33094;SDS011;19459;53.044;8.910;2023-04-09T14:25:20;19.27;;;13.07;;
33094;SDS011;19459;53.044;8.910;2023-04-09T14:27:46;38.42;;;28.02;;
33094;SDS011;19459;53.044;8.910;2023-04-09T14:30:12;20.40;;;15.45;;
33094;SDS011;19459;53.044;8.910;2023-04-09T14:32:38;20.02;;;14.55;;
33094;SDS011;19459;53.044;8.910;2023-04-09T14:35:04;19.20;;;13.90;;
33094;SDS011;19459;53.044;8.910;2023-04-09T14:37:30;18.10;;;12.95;;
33094;SDS011;19459;53.044;8.910;2023-04-09T14:39:56;17.23;;;13.63;;
33094;SDS011;19459;53.044;8.910;2023-04-09T14:42:21;21.13;;;13.20;;
33094;SDS011;19459;53.044;8.910;2023-04-09T14:44:47;19.80;;;14.93;;
33094;SDS011;19459;53.044;8.910;2023-04-09T14:47:13;19.80;;;14.60;;